sensor_id;sensor_type;location;lat;lon;timestamp;P1;durP1;ratioP1;P2;durP2;ratioP2
50932;SDS011;36921;49.006;9.292;2023-07-13T00:00:17;2.53;;;0.85;;
50932;SDS011;36921;49.006;9.292;2023-07-13T00:02:43;3.20;;;0.90;;
50932;SDS011;36921;49.006;9.292;2023-07-13T00:05:08;0.95;;;0.70;;
50932;SDS011;36921;49.006;9.292;2023-07-13T00:07:34;2.28;;;1.13;;
50932;SDS011;36921;49.006;9.292;2023-07-13T00:10:00;6.47;;;1.10;;
50932;SDS011;36921;49.006;9.292;2023-07-13T00:12:30;1.65;;;0.88;;
50932;SDS011;36921;49.006;9.292;2023-07-13T00:14:57;4.18;;;0.82;;
50932;SDS011;36921;49.006;9.292;2023-07-13T00:17:24;2.08;;;0.75;;
50932;SDS011;36921;49.006;9.292;2023-07-13T00:19:51;2.17;;;0.82;;
50932;SDS011;36921;49.006;9.292;2023-07-13T00:22:16;3.60;;;0.85;;
50932;SDS011;36921;49.006;9.292;2023-07-13T00:24:43;2.63;;;0.70;;
50932;SDS011;36921;49.006;9.292;2023-07-13T00:27:09;2.03;;;0.80;;
50932;SDS011;36921;49.006;9.292;2023-07-13T00:29:35;3.22;;;1.00;;
50932;SDS011;36921;49.006;9.292;2023-07-13T00:32:02;3.22;;;0.95;;
50932;SDS011;36921;49.006;9.292;2023-07-13T00:34:28;1.13;;;0.60;;
50932;SDS011;36921;49.006;9.292;2023-07-13T00:36:54;4.45;;;0.77;;
50932;SDS011;36921;49.006;9.292;2023-07-13T00:39:19;3.15;;;0.60;;
50932;SDS011;36921;49.006;9.292;2023-07-13T00:41:46;7.40;;;0.90;;
50932;SDS011;36921;49.006;9.292;2023-07-13T00:44:15;3.22;;;0.88;;
50932;SDS011;36921;49.006;9.292;2023-07-13T00:46:41;3.55;;;0.90;;
50932;SDS011;36921;49.006;9.292;2023-07-13T00:49:08;3.10;;;0.80;;
50932;SDS011;36921;49.006;9.292;2023-07-13T00:51:45;6.32;;;1.05;;
50932;SDS011;36921;49.006;9.292;2023-07-13T00:54:30;1.25;;;0.68;;
50932;SDS011;36921;49.006;9.292;2023-07-13T00:57:01;2.42;;;0.90;;
50932;SDS011;36921;49.006;9.292;2023-07-13T00:59:29;4.82;;;1.10;;
50932;SDS011;36921;49.006;9.292;2023-07-13T01:01:56;3.00;;;1.10;;
50932;SDS011;36921;49.006;9.292;2023-07-13T01:04:23;4.10;;;0.95;;
50932;SDS011;36921;49.006;9.292;2023-07-13T01:06:49;2.95;;;0.80;;
50932;SDS011;36921;49.006;9.292;2023-07-13T01:09:15;1.90;;;0.82;;
50932;SDS011;36921;49.006;9.292;2023-07-13T01:11:41;6.90;;;1.10;;
50932;SDS011;36921;49.006;9.292;2023-07-13T01:14:07;3.85;;;0.90;;
50932;SDS011;36921;49.006;9.292;2023-07-13T01:16:33;3.28;;;0.80;;
50932;SDS011;36921;49.006;9.292;2023-07-13T01:19:00;3.00;;;0.70;;
50932;SDS011;36921;49.006;9.292;2023-07-13T01:21:29;6.65;;;1.00;;
50932;SDS011;36921;49.006;9.292;2023-07-13T01:23:57;2.28;;;1.05;;
50932;SDS011;36921;49.006;9.292;2023-07-13T01:26:22;4.53;;;0.80;;
50932;SDS011;36921;49.006;9.292;2023-07-13T01:28:48;2.58;;;0.80;;
50932;SDS011;36921;49.006;9.292;2023-07-13T01:31:13;2.10;;;0.80;;
50932;SDS011;36921;49.006;9.292;2023-07-13T01:33:39;3.55;;;1.00;;
50932;SDS011;36921;49.006;9.292;2023-07-13T01:36:09;2.38;;;0.80;;
50932;SDS011;36921;49.006;9.292;2023-07-13T01:38:35;3.92;;;1.00;;
50932;SDS011;36921;49.006;9.292;2023-07-13T01:41:01;5.05;;;1.05;;
50932;SDS011;36921;49.006;9.292;2023-07-13T01:43:28;1.33;;;0.70;;
50932;SDS011;36921;49.006;9.292;2023-07-13T01:45:53;5.28;;;0.93;;
50932;SDS011;36921;49.006;9.292;2023-07-13T01:48:18;5.38;;;1.08;;
50932;SDS011;36921;49.006;9.292;2023-07-13T01:50:45;1.20;;;0.70;;
50932;SDS011;36921;49.006;9.292;2023-07-13T01:53:10;3.13;;;1.33;;
50932;SDS011;36921;49.006;9.292;2023-07-13T01:55:37;2.40;;;0.70;;
50932;SDS011;36921;49.006;9.292;2023-07-13T01:58:03;1.17;;;0.75;;
50932;SDS011;36921;49.006;9.292;2023-07-13T02:00:30;5.57;;;1.08;;
50932;SDS011;36921;49.006;9.292;2023-07-13T02:02:55;1.27;;;0.77;;
50932;SDS011;36921;49.006;9.292;2023-07-13T02:05:21;2.22;;;0.75;;
50932;SDS011;36921;49.006;9.292;2023-07-13T02:07:46;4.40;;;1.00;;
50932;SDS011;36921;49.006;9.292;2023-07-13T02:10:12;2.75;;;1.10;;
50932;SDS011;36921;49.006;9.292;2023-07-13T02:12:38;2.97;;;0.70;;
50932;SDS011;36921;49.006;9.292;2023-07-13T02:15:04;4.70;;;1.02;;
50932;SDS011;36921;49.006;9.292;2023-07-13T02:17:30;2.00;;;1.00;;
50932;SDS011;36921;49.006;9.292;2023-07-13T02:19:57;3.28;;;1.05;;
50932;SDS011;36921;49.006;9.292;2023-07-13T02:22:22;2.35;;;0.70;;
50932;SDS011;36921;49.006;9.292;2023-07-13T02:24:48;3.20;;;0.93;;
50932;SDS011;36921;49.006;9.292;2023-07-13T02:27:14;2.15;;;0.90;;
50932;SDS011;36921;49.006;9.292;2023-07-13T02:29:39;5.43;;;1.00;;
50932;SDS011;36921;49.006;9.292;2023-07-13T02:32:04;2.58;;;1.10;;
50932;SDS011;36921;49.006;9.292;2023-07-13T02:34:30;7.13;;;1.42;;
50932;SDS011;36921;49.006;9.292;2023-07-13T02:36:56;3.47;;;1.30;;
50932;SDS011;36921;49.006;9.292;2023-07-13T02:39:21;1.98;;;1.38;;
50932;SDS011;36921;49.006;9.292;2023-07-13T02:41:46;2.75;;;1.20;;
50932;SDS011;36921;49.006;9.292;2023-07-13T02:44:12;2.35;;;1.10;;
50932;SDS011;36921;49.006;9.292;2023-07-13T02:46:38;3.58;;;1.25;;
50932;SDS011;36921;49.006;9.292;2023-07-13T02:49:04;4.47;;;1.33;;
50932;SDS011;36921;49.006;9.292;2023-07-13T02:51:30;4.15;;;1.23;;
50932;SDS011;36921;49.006;9.292;2023-07-13T02:53:58;2.70;;;1.10;;
50932;SDS011;36921;49.006;9.292;2023-07-13T02:56:25;5.25;;;1.70;;
50932;SDS011;36921;49.006;9.292;2023-07-13T02:58:51;4.72;;;1.48;;
50932;SDS011;36921;49.006;9.292;2023-07-13T03:01:18;3.05;;;1.60;;
50932;SDS011;36921;49.006;9.292;2023-07-13T03:03:47;4.20;;;1.40;;
50932;SDS011;36921;49.006;9.292;2023-07-13T03:06:14;2.50;;;1.13;;
50932;SDS011;36921;49.006;9.292;2023-07-13T03:08:40;2.60;;;1.10;;
50932;SDS011;36921;49.006;9.292;2023-07-13T03:11:08;2.22;;;1.00;;
50932;SDS011;36921;49.006;9.292;2023-07-13T03:13:41;4.53;;;1.02;;
50932;SDS011;36921;49.006;9.292;2023-07-13T03:16:07;5.38;;;1.00;;
50932;SDS011;36921;49.006;9.292;2023-07-13T03:18:34;2.97;;;1.13;;
50932;SDS011;36921;49.006;9.292;2023-07-13T03:21:00;2.13;;;1.10;;
50932;SDS011;36921;49.006;9.292;2023-07-13T03:23:25;4.78;;;1.38;;
50932;SDS011;36921;49.006;9.292;2023-07-13T03:26:00;4.60;;;1.85;;
50932;SDS011;36921;49.006;9.292;2023-07-13T03:28:26;10.57;;;2.20;;
50932;SDS011;36921;49.006;9.292;2023-07-13T03:30:58;5.88;;;2.00;;
50932;SDS011;36921;49.006;9.292;2023-07-13T03:33:28;6.45;;;1.67;;
50932;SDS011;36921;49.006;9.292;2023-07-13T03:35:53;6.13;;;1.90;;
50932;SDS011;36921;49.006;9.292;2023-07-13T03:38:19;5.00;;;1.95;;
50932;SDS011;36921;49.006;9.292;2023-07-13T03:40:44;3.00;;;1.92;;
50932;SDS011;36921;49.006;9.292;2023-07-13T03:43:10;2.75;;;1.52;;
50932;SDS011;36921;49.006;9.292;2023-07-13T03:45:37;8.02;;;1.90;;
50932;SDS011;36921;49.006;9.292;2023-07-13T03:48:03;4.95;;;1.80;;
50932;SDS011;36921;49.006;9.292;2023-07-13T03:50:28;4.05;;;1.75;;
50932;SDS011;36921;49.006;9.292;2023-07-13T03:52:54;4.03;;;1.52;;
50932;SDS011;36921;49.006;9.292;2023-07-13T03:55:20;4.28;;;1.67;;
50932;SDS011;36921;49.006;9.292;2023-07-13T03:57:46;4.15;;;1.80;;
50932;SDS011;36921;49.006;9.292;2023-07-13T04:00:13;3.72;;;1.65;;
50932;SDS011;36921;49.006;9.292;2023-07-13T04:02:38;3.90;;;1.40;;
50932;SDS011;36921;49.006;9.292;2023-07-13T04:05:04;3.75;;;1.60;;
50932;SDS011;36921;49.006;9.292;2023-07-13T04:07:29;5.15;;;1.77;;
50932;SDS011;36921;49.006;9.292;2023-07-13T04:09:55;4.00;;;1.73;;
50932;SDS011;36921;49.006;9.292;2023-07-13T04:12:20;8.38;;;1.73;;
50932;SDS011;36921;49.006;9.292;2023-07-13T04:14:45;3.50;;;1.42;;
50932;SDS011;36921;49.006;9.292;2023-07-13T04:17:11;5.72;;;1.85;;
50932;SDS011;36921;49.006;9.292;2023-07-13T04:19:36;8.43;;;1.73;;
50932;SDS011;36921;49.006;9.292;2023-07-13T04:22:01;7.38;;;1.98;;
50932;SDS011;36921;49.006;9.292;2023-07-13T04:24:27;6.90;;;2.33;;
50932;SDS011;36921;49.006;9.292;2023-07-13T04:26:52;7.53;;;1.40;;
50932;SDS011;36921;49.006;9.292;2023-07-13T04:29:17;12.70;;;1.63;;
50932;SDS011;36921;49.006;9.292;2023-07-13T04:31:43;3.53;;;1.42;;
50932;SDS011;36921;49.006;9.292;2023-07-13T04:34:08;3.97;;;1.88;;
50932;SDS011;36921;49.006;9.292;2023-07-13T04:36:33;2.88;;;1.40;;
50932;SDS011;36921;49.006;9.292;2023-07-13T04:39:02;4.63;;;1.63;;
50932;SDS011;36921;49.006;9.292;2023-07-13T04:41:29;4.65;;;1.20;;
50932;SDS011;36921;49.006;9.292;2023-07-13T04:43:54;2.05;;;1.38;;
50932;SDS011;36921;49.006;9.292;2023-07-13T04:46:21;2.70;;;1.30;;
50932;SDS011;36921;49.006;9.292;2023-07-13T04:48:46;4.05;;;1.23;;
50932;SDS011;36921;49.006;9.292;2023-07-13T04:51:14;6.45;;;1.52;;
50932;SDS011;36921;49.006;9.292;2023-07-13T04:53:39;2.83;;;1.50;;
50932;SDS011;36921;49.006;9.292;2023-07-13T04:56:05;6.57;;;1.20;;
50932;SDS011;36921;49.006;9.292;2023-07-13T04:58:30;3.92;;;1.30;;
50932;SDS011;36921;49.006;9.292;2023-07-13T05:01:00;3.15;;;1.30;;
50932;SDS011;36921;49.006;9.292;2023-07-13T05:03:27;3.03;;;1.63;;
50932;SDS011;36921;49.006;9.292;2023-07-13T05:05:56;5.70;;;1.52;;
50932;SDS011;36921;49.006;9.292;2023-07-13T05:08:23;3.58;;;1.50;;
50932;SDS011;36921;49.006;9.292;2023-07-13T05:10:50;4.10;;;1.77;;
50932;SDS011;36921;49.006;9.292;2023-07-13T05:13:16;6.45;;;1.35;;
50932;SDS011;36921;49.006;9.292;2023-07-13T05:15:42;3.55;;;1.42;;
50932;SDS011;36921;49.006;9.292;2023-07-13T05:18:07;4.13;;;1.27;;
50932;SDS011;36921;49.006;9.292;2023-07-13T05:20:33;4.50;;;1.25;;
50932;SDS011;36921;49.006;9.292;2023-07-13T05:22:58;5.22;;;1.48;;
50932;SDS011;36921;49.006;9.292;2023-07-13T05:25:24;3.45;;;1.38;;
50932;SDS011;36921;49.006;9.292;2023-07-13T05:27:49;5.63;;;1.40;;
50932;SDS011;36921;49.006;9.292;2023-07-13T05:30:14;6.28;;;1.55;;
50932;SDS011;36921;49.006;9.292;2023-07-13T05:32:40;2.08;;;1.13;;
50932;SDS011;36921;49.006;9.292;2023-07-13T05:35:06;4.35;;;1.33;;
50932;SDS011;36921;49.006;9.292;2023-07-13T05:37:32;9.05;;;1.40;;
50932;SDS011;36921;49.006;9.292;2023-07-13T05:39:57;2.90;;;1.30;;
50932;SDS011;36921;49.006;9.292;2023-07-13T05:42:23;3.47;;;1.52;;
50932;SDS011;36921;49.006;9.292;2023-07-13T05:44:48;3.72;;;1.30;;
50932;SDS011;36921;49.006;9.292;2023-07-13T05:47:13;2.80;;;1.83;;
50932;SDS011;36921;49.006;9.292;2023-07-13T05:49:40;4.63;;;1.17;;
50932;SDS011;36921;49.006;9.292;2023-07-13T05:52:07;2.35;;;1.50;;
50932;SDS011;36921;49.006;9.292;2023-07-13T05:54:32;5.97;;;1.30;;
50932;SDS011;36921;49.006;9.292;2023-07-13T05:59:31;3.40;;;1.40;;
50932;SDS011;36921;49.006;9.292;2023-07-13T06:04:25;4.55;;;1.67;;
50932;SDS011;36921;49.006;9.292;2023-07-13T06:06:51;4.45;;;1.60;;
50932;SDS011;36921;49.006;9.292;2023-07-13T06:09:16;4.88;;;1.20;;
50932;SDS011;36921;49.006;9.292;2023-07-13T06:11:42;3.58;;;1.23;;
50932;SDS011;36921;49.006;9.292;2023-07-13T06:14:08;8.13;;;1.27;;
50932;SDS011;36921;49.006;9.292;2023-07-13T06:16:33;5.88;;;1.33;;
50932;SDS011;36921;49.006;9.292;2023-07-13T06:18:59;4.43;;;1.10;;
50932;SDS011;36921;49.006;9.292;2023-07-13T06:21:24;5.80;;;1.38;;
50932;SDS011;36921;49.006;9.292;2023-07-13T06:23:50;4.40;;;1.40;;
50932;SDS011;36921;49.006;9.292;2023-07-13T06:26:18;3.42;;;1.40;;
50932;SDS011;36921;49.006;9.292;2023-07-13T06:28:44;5.38;;;1.70;;
50932;SDS011;36921;49.006;9.292;2023-07-13T06:31:10;8.45;;;1.52;;
50932;SDS011;36921;49.006;9.292;2023-07-13T06:33:37;6.63;;;1.20;;
50932;SDS011;36921;49.006;9.292;2023-07-13T06:36:03;4.43;;;1.50;;
50932;SDS011;36921;49.006;9.292;2023-07-13T06:38:30;1.85;;;1.20;;
50932;SDS011;36921;49.006;9.292;2023-07-13T06:40:56;3.17;;;1.08;;
50932;SDS011;36921;49.006;9.292;2023-07-13T06:43:21;5.45;;;1.20;;
50932;SDS011;36921;49.006;9.292;2023-07-13T06:45:48;4.40;;;1.23;;
50932;SDS011;36921;49.006;9.292;2023-07-13T06:48:15;1.98;;;1.00;;
50932;SDS011;36921;49.006;9.292;2023-07-13T06:50:41;4.38;;;1.38;;
50932;SDS011;36921;49.006;9.292;2023-07-13T06:53:07;3.70;;;1.20;;
50932;SDS011;36921;49.006;9.292;2023-07-13T06:55:34;3.47;;;1.23;;
50932;SDS011;36921;49.006;9.292;2023-07-13T06:57:59;3.42;;;1.10;;
50932;SDS011;36921;49.006;9.292;2023-07-13T07:00:25;3.08;;;1.00;;
50932;SDS011;36921;49.006;9.292;2023-07-13T07:02:50;4.60;;;1.20;;
50932;SDS011;36921;49.006;9.292;2023-07-13T07:05:15;4.70;;;1.30;;
50932;SDS011;36921;49.006;9.292;2023-07-13T07:07:41;3.42;;;1.17;;
50932;SDS011;36921;49.006;9.292;2023-07-13T07:10:06;3.20;;;0.95;;
50932;SDS011;36921;49.006;9.292;2023-07-13T07:12:32;4.13;;;0.80;;
50932;SDS011;36921;49.006;9.292;2023-07-13T07:14:58;2.78;;;1.00;;
50932;SDS011;36921;49.006;9.292;2023-07-13T07:17:23;3.33;;;1.30;;
50932;SDS011;36921;49.006;9.292;2023-07-13T07:19:50;4.00;;;1.00;;
50932;SDS011;36921;49.006;9.292;2023-07-13T07:22:15;5.30;;;1.20;;
50932;SDS011;36921;49.006;9.292;2023-07-13T07:24:40;4.53;;;1.13;;
50932;SDS011;36921;49.006;9.292;2023-07-13T07:27:06;6.32;;;1.05;;
50932;SDS011;36921;49.006;9.292;2023-07-13T07:29:31;4.72;;;0.98;;
50932;SDS011;36921;49.006;9.292;2023-07-13T07:31:58;2.42;;;0.65;;
50932;SDS011;36921;49.006;9.292;2023-07-13T07:34:24;3.75;;;1.13;;
50932;SDS011;36921;49.006;9.292;2023-07-13T07:36:50;3.30;;;1.00;;
50932;SDS011;36921;49.006;9.292;2023-07-13T07:39:15;8.90;;;1.08;;
50932;SDS011;36921;49.006;9.292;2023-07-13T07:41:41;4.03;;;1.00;;
50932;SDS011;36921;49.006;9.292;2023-07-13T07:44:07;3.45;;;0.80;;
50932;SDS011;36921;49.006;9.292;2023-07-13T07:46:35;6.57;;;0.80;;
50932;SDS011;36921;49.006;9.292;2023-07-13T07:49:00;2.70;;;0.90;;
50932;SDS011;36921;49.006;9.292;2023-07-13T07:51:26;4.38;;;0.90;;
50932;SDS011;36921;49.006;9.292;2023-07-13T07:53:52;3.70;;;0.70;;
50932;SDS011;36921;49.006;9.292;2023-07-13T07:56:17;2.53;;;0.70;;
50932;SDS011;36921;49.006;9.292;2023-07-13T07:58:43;3.30;;;0.70;;
50932;SDS011;36921;49.006;9.292;2023-07-13T08:01:09;2.95;;;0.90;;
50932;SDS011;36921;49.006;9.292;2023-07-13T08:03:35;3.30;;;0.75;;
50932;SDS011;36921;49.006;9.292;2023-07-13T08:06:01;2.38;;;0.90;;
50932;SDS011;36921;49.006;9.292;2023-07-13T08:08:27;2.83;;;0.68;;
50932;SDS011;36921;49.006;9.292;2023-07-13T08:10:53;1.17;;;0.52;;
50932;SDS011;36921;49.006;9.292;2023-07-13T08:13:19;1.55;;;0.63;;
50932;SDS011;36921;49.006;9.292;2023-07-13T08:15:46;1.25;;;0.60;;
50932;SDS011;36921;49.006;9.292;2023-07-13T08:18:13;3.42;;;0.60;;
50932;SDS011;36921;49.006;9.292;2023-07-13T08:20:39;2.97;;;0.70;;
50932;SDS011;36921;49.006;9.292;2023-07-13T08:23:06;4.28;;;0.73;;
50932;SDS011;36921;49.006;9.292;2023-07-13T08:25:35;3.30;;;0.80;;
50932;SDS011;36921;49.006;9.292;2023-07-13T08:28:02;2.22;;;0.60;;
50932;SDS011;36921;49.006;9.292;2023-07-13T08:30:30;2.50;;;0.60;;
50932;SDS011;36921;49.006;9.292;2023-07-13T08:35:23;4.78;;;0.70;;
50932;SDS011;36921;49.006;9.292;2023-07-13T08:37:50;1.98;;;0.70;;
50932;SDS011;36921;49.006;9.292;2023-07-13T08:40:17;3.60;;;0.80;;
50932;SDS011;36921;49.006;9.292;2023-07-13T08:42:53;1.80;;;0.52;;
50932;SDS011;36921;49.006;9.292;2023-07-13T08:48:13;3.92;;;0.70;;
50932;SDS011;36921;49.006;9.292;2023-07-13T08:50:53;2.85;;;0.60;;
50932;SDS011;36921;49.006;9.292;2023-07-13T08:53:24;1.45;;;0.50;;
50932;SDS011;36921;49.006;9.292;2023-07-13T08:58:27;2.05;;;0.57;;
50932;SDS011;36921;49.006;9.292;2023-07-13T09:03:40;3.03;;;0.70;;
50932;SDS011;36921;49.006;9.292;2023-07-13T09:06:12;3.50;;;0.60;;
50932;SDS011;36921;49.006;9.292;2023-07-13T09:14:26;1.48;;;0.57;;
50932;SDS011;36921;49.006;9.292;2023-07-13T09:17:04;3.13;;;0.68;;
50932;SDS011;36921;49.006;9.292;2023-07-13T09:19:33;2.22;;;0.60;;
50932;SDS011;36921;49.006;9.292;2023-07-13T09:22:01;3.67;;;0.75;;
50932;SDS011;36921;49.006;9.292;2023-07-13T09:27:05;2.35;;;0.50;;
50932;SDS011;36921;49.006;9.292;2023-07-13T09:29:40;1.50;;;0.52;;
50932;SDS011;36921;49.006;9.292;2023-07-13T09:32:11;1.88;;;0.70;;
50932;SDS011;36921;49.006;9.292;2023-07-13T09:34:40;3.00;;;1.10;;
50932;SDS011;36921;49.006;9.292;2023-07-13T09:37:07;2.13;;;0.65;;
50932;SDS011;36921;49.006;9.292;2023-07-13T09:39:35;2.92;;;1.02;;
50932;SDS011;36921;49.006;9.292;2023-07-13T09:47:25;1.67;;;0.70;;
50932;SDS011;36921;49.006;9.292;2023-07-13T09:49:59;1.75;;;0.60;;
50932;SDS011;36921;49.006;9.292;2023-07-13T09:52:27;2.33;;;0.70;;
50932;SDS011;36921;49.006;9.292;2023-07-13T09:55:11;2.33;;;0.65;;
50932;SDS011;36921;49.006;9.292;2023-07-13T09:57:50;4.78;;;0.73;;
50932;SDS011;36921;49.006;9.292;2023-07-13T10:00:23;2.75;;;0.77;;
50932;SDS011;36921;49.006;9.292;2023-07-13T10:05:48;2.75;;;0.50;;
50932;SDS011;36921;49.006;9.292;2023-07-13T10:08:35;2.58;;;0.80;;
50932;SDS011;36921;49.006;9.292;2023-07-13T10:11:01;2.90;;;0.80;;
50932;SDS011;36921;49.006;9.292;2023-07-13T10:16:28;2.45;;;0.70;;
50932;SDS011;36921;49.006;9.292;2023-07-13T10:18:59;3.28;;;0.88;;
50932;SDS011;36921;49.006;9.292;2023-07-13T10:21:38;3.90;;;0.85;;
50932;SDS011;36921;49.006;9.292;2023-07-13T10:26:46;3.08;;;0.70;;
50932;SDS011;36921;49.006;9.292;2023-07-13T10:29:19;3.78;;;0.80;;
50932;SDS011;36921;49.006;9.292;2023-07-13T10:31:49;3.08;;;0.77;;
50932;SDS011;36921;49.006;9.292;2023-07-13T10:34:16;1.65;;;0.80;;
50932;SDS011;36921;49.006;9.292;2023-07-13T10:36:46;4.50;;;0.82;;
50932;SDS011;36921;49.006;9.292;2023-07-13T10:39:17;1.73;;;0.75;;
50932;SDS011;36921;49.006;9.292;2023-07-13T10:41:48;3.40;;;0.70;;
50932;SDS011;36921;49.006;9.292;2023-07-13T10:44:21;3.63;;;0.80;;
50932;SDS011;36921;49.006;9.292;2023-07-13T10:46:57;2.90;;;0.70;;
50932;SDS011;36921;49.006;9.292;2023-07-13T10:49:29;2.72;;;0.70;;
50932;SDS011;36921;49.006;9.292;2023-07-13T10:51:57;1.05;;;0.68;;
50932;SDS011;36921;49.006;9.292;2023-07-13T10:54:27;1.60;;;0.50;;
50932;SDS011;36921;49.006;9.292;2023-07-13T10:57:20;3.33;;;0.95;;
50932;SDS011;36921;49.006;9.292;2023-07-13T11:00:30;3.33;;;0.90;;
50932;SDS011;36921;49.006;9.292;2023-07-13T11:02:41;4.32;;;0.85;;
50932;SDS011;36921;49.006;9.292;2023-07-13T11:07:55;3.78;;;0.82;;
50932;SDS011;36921;49.006;9.292;2023-07-13T11:16:32;3.03;;;0.70;;
50932;SDS011;36921;49.006;9.292;2023-07-13T11:21:34;2.42;;;0.65;;
50932;SDS011;36921;49.006;9.292;2023-07-13T11:29:18;2.58;;;0.70;;
50932;SDS011;36921;49.006;9.292;2023-07-13T11:32:25;4.05;;;0.70;;
50932;SDS011;36921;49.006;9.292;2023-07-13T11:34:57;1.48;;;0.40;;
50932;SDS011;36921;49.006;9.292;2023-07-13T11:39:50;3.97;;;0.50;;
50932;SDS011;36921;49.006;9.292;2023-07-13T11:42:18;1.80;;;0.50;;
50932;SDS011;36921;49.006;9.292;2023-07-13T11:44:48;4.28;;;0.80;;
50932;SDS011;36921;49.006;9.292;2023-07-13T11:47:20;2.25;;;0.73;;
50932;SDS011;36921;49.006;9.292;2023-07-13T11:49:52;3.20;;;0.70;;
50932;SDS011;36921;49.006;9.292;2023-07-13T11:52:27;2.63;;;0.70;;
50932;SDS011;36921;49.006;9.292;2023-07-13T11:55:01;2.97;;;0.68;;
50932;SDS011;36921;49.006;9.292;2023-07-13T11:57:30;2.83;;;0.70;;
50932;SDS011;36921;49.006;9.292;2023-07-13T11:59:59;4.80;;;0.63;;
50932;SDS011;36921;49.006;9.292;2023-07-13T12:02:37;3.13;;;0.60;;
50932;SDS011;36921;49.006;9.292;2023-07-13T12:05:05;2.33;;;0.80;;
50932;SDS011;36921;49.006;9.292;2023-07-13T12:07:35;2.10;;;0.80;;
50932;SDS011;36921;49.006;9.292;2023-07-13T12:10:13;1.35;;;0.57;;
50932;SDS011;36921;49.006;9.292;2023-07-13T12:12:54;2.25;;;0.65;;
50932;SDS011;36921;49.006;9.292;2023-07-13T12:15:22;3.30;;;0.60;;
50932;SDS011;36921;49.006;9.292;2023-07-13T12:17:48;0.60;;;0.50;;
50932;SDS011;36921;49.006;9.292;2023-07-13T12:20:19;4.93;;;0.50;;
50932;SDS011;36921;49.006;9.292;2023-07-13T12:22:49;2.33;;;0.63;;
50932;SDS011;36921;49.006;9.292;2023-07-13T12:25:15;2.50;;;0.63;;
50932;SDS011;36921;49.006;9.292;2023-07-13T12:27:42;2.03;;;0.70;;
50932;SDS011;36921;49.006;9.292;2023-07-13T12:30:31;2.65;;;0.93;;
50932;SDS011;36921;49.006;9.292;2023-07-13T12:33:01;2.70;;;0.60;;
50932;SDS011;36921;49.006;9.292;2023-07-13T12:35:38;1.13;;;0.60;;
50932;SDS011;36921;49.006;9.292;2023-07-13T12:38:07;3.35;;;0.80;;
50932;SDS011;36921;49.006;9.292;2023-07-13T12:40:35;1.08;;;0.60;;
50932;SDS011;36921;49.006;9.292;2023-07-13T12:43:02;7.25;;;0.90;;
50932;SDS011;36921;49.006;9.292;2023-07-13T12:45:29;1.77;;;0.67;;
50932;SDS011;36921;49.006;9.292;2023-07-13T12:47:56;1.92;;;0.50;;
50932;SDS011;36921;49.006;9.292;2023-07-13T12:50:28;1.10;;;0.40;;
50932;SDS011;36921;49.006;9.292;2023-07-13T12:52:59;3.47;;;0.90;;
50932;SDS011;36921;49.006;9.292;2023-07-13T12:55:39;1.65;;;0.70;;
50932;SDS011;36921;49.006;9.292;2023-07-13T12:58:09;1.75;;;0.57;;
50932;SDS011;36921;49.006;9.292;2023-07-13T13:00:47;2.60;;;0.70;;
50932;SDS011;36921;49.006;9.292;2023-07-13T13:03:30;1.33;;;0.65;;
50932;SDS011;36921;49.006;9.292;2023-07-13T13:06:01;2.92;;;1.17;;
50932;SDS011;36921;49.006;9.292;2023-07-13T13:08:38;2.35;;;1.00;;
50932;SDS011;36921;49.006;9.292;2023-07-13T13:11:06;2.70;;;0.52;;
50932;SDS011;36921;49.006;9.292;2023-07-13T13:13:31;2.85;;;0.80;;
50932;SDS011;36921;49.006;9.292;2023-07-13T13:16:01;4.35;;;0.65;;
50932;SDS011;36921;49.006;9.292;2023-07-13T13:18:31;1.95;;;0.70;;
50932;SDS011;36921;49.006;9.292;2023-07-13T13:20:56;3.45;;;0.82;;
50932;SDS011;36921;49.006;9.292;2023-07-13T13:23:21;2.35;;;0.70;;
50932;SDS011;36921;49.006;9.292;2023-07-13T13:25:49;3.60;;;0.68;;
50932;SDS011;36921;49.006;9.292;2023-07-13T13:28:16;1.85;;;0.77;;
50932;SDS011;36921;49.006;9.292;2023-07-13T13:30:44;1.83;;;0.65;;
50932;SDS011;36921;49.006;9.292;2023-07-13T13:33:12;2.55;;;0.63;;
50932;SDS011;36921;49.006;9.292;2023-07-13T13:35:40;5.07;;;0.73;;
50932;SDS011;36921;49.006;9.292;2023-07-13T13:38:13;4.50;;;0.88;;
50932;SDS011;36921;49.006;9.292;2023-07-13T13:40:40;2.05;;;0.70;;
50932;SDS011;36921;49.006;9.292;2023-07-13T13:43:16;1.63;;;0.77;;
50932;SDS011;36921;49.006;9.292;2023-07-13T13:45:42;3.08;;;0.60;;
50932;SDS011;36921;49.006;9.292;2023-07-13T13:48:21;3.17;;;1.00;;
50932;SDS011;36921;49.006;9.292;2023-07-13T13:50:57;1.25;;;0.50;;
50932;SDS011;36921;49.006;9.292;2023-07-13T13:53:23;1.58;;;0.55;;
50932;SDS011;36921;49.006;9.292;2023-07-13T13:55:49;3.80;;;0.68;;
50932;SDS011;36921;49.006;9.292;2023-07-13T13:58:15;1.55;;;0.60;;
50932;SDS011;36921;49.006;9.292;2023-07-13T14:00:40;4.38;;;0.60;;
50932;SDS011;36921;49.006;9.292;2023-07-13T14:03:08;4.00;;;0.63;;
50932;SDS011;36921;49.006;9.292;2023-07-13T14:05:43;4.97;;;0.80;;
50932;SDS011;36921;49.006;9.292;2023-07-13T14:08:19;2.28;;;0.73;;
50932;SDS011;36921;49.006;9.292;2023-07-13T14:10:46;1.75;;;0.77;;
50932;SDS011;36921;49.006;9.292;2023-07-13T14:13:18;4.13;;;0.70;;
50932;SDS011;36921;49.006;9.292;2023-07-13T14:15:48;3.85;;;0.75;;
50932;SDS011;36921;49.006;9.292;2023-07-13T14:18:14;3.00;;;0.85;;
50932;SDS011;36921;49.006;9.292;2023-07-13T14:20:43;2.42;;;0.65;;
50932;SDS011;36921;49.006;9.292;2023-07-13T14:23:10;2.63;;;0.60;;
50932;SDS011;36921;49.006;9.292;2023-07-13T14:25:37;1.88;;;0.70;;
50932;SDS011;36921;49.006;9.292;2023-07-13T14:28:10;1.50;;;0.60;;
50932;SDS011;36921;49.006;9.292;2023-07-13T14:30:43;5.25;;;0.82;;
50932;SDS011;36921;49.006;9.292;2023-07-13T14:33:09;2.88;;;0.60;;
50932;SDS011;36921;49.006;9.292;2023-07-13T14:35:36;2.38;;;0.68;;
50932;SDS011;36921;49.006;9.292;2023-07-13T14:38:02;3.08;;;0.80;;
50932;SDS011;36921;49.006;9.292;2023-07-13T14:40:29;2.20;;;0.65;;
50932;SDS011;36921;49.006;9.292;2023-07-13T14:42:56;2.67;;;0.70;;
50932;SDS011;36921;49.006;9.292;2023-07-13T14:45:22;3.33;;;0.65;;
50932;SDS011;36921;49.006;9.292;2023-07-13T14:47:48;3.17;;;0.80;;
50932;SDS011;36921;49.006;9.292;2023-07-13T14:50:17;2.38;;;0.80;;
50932;SDS011;36921;49.006;9.292;2023-07-13T14:52:45;2.83;;;0.73;;
50932;SDS011;36921;49.006;9.292;2023-07-13T14:55:13;2.45;;;0.70;;
50932;SDS011;36921;49.006;9.292;2023-07-13T14:57:40;1.58;;;0.57;;
50932;SDS011;36921;49.006;9.292;2023-07-13T15:00:16;2.15;;;0.70;;
50932;SDS011;36921;49.006;9.292;2023-07-13T15:02:47;3.90;;;0.80;;
50932;SDS011;36921;49.006;9.292;2023-07-13T15:05:16;2.25;;;0.70;;
50932;SDS011;36921;49.006;9.292;2023-07-13T15:07:48;1.38;;;0.50;;
50932;SDS011;36921;49.006;9.292;2023-07-13T15:10:20;3.10;;;0.63;;
50932;SDS011;36921;49.006;9.292;2023-07-13T15:12:47;3.67;;;0.70;;
50932;SDS011;36921;49.006;9.292;2023-07-13T15:15:13;7.72;;;1.17;;
50932;SDS011;36921;49.006;9.292;2023-07-13T15:17:43;1.80;;;0.60;;
50932;SDS011;36921;49.006;9.292;2023-07-13T15:20:29;2.08;;;0.80;;
50932;SDS011;36921;49.006;9.292;2023-07-13T15:22:57;1.90;;;0.73;;
50932;SDS011;36921;49.006;9.292;2023-07-13T15:25:24;2.58;;;0.75;;
50932;SDS011;36921;49.006;9.292;2023-07-13T15:27:52;1.55;;;0.75;;
50932;SDS011;36921;49.006;9.292;2023-07-13T15:30:19;2.25;;;0.75;;
50932;SDS011;36921;49.006;9.292;2023-07-13T15:32:46;2.05;;;0.68;;
50932;SDS011;36921;49.006;9.292;2023-07-13T15:35:16;1.58;;;0.55;;
50932;SDS011;36921;49.006;9.292;2023-07-13T15:37:45;3.58;;;0.70;;
50932;SDS011;36921;49.006;9.292;2023-07-13T15:40:11;4.30;;;0.70;;
50932;SDS011;36921;49.006;9.292;2023-07-13T15:42:38;1.88;;;0.80;;
50932;SDS011;36921;49.006;9.292;2023-07-13T15:45:13;1.50;;;0.75;;
50932;SDS011;36921;49.006;9.292;2023-07-13T15:47:41;2.50;;;0.75;;
50932;SDS011;36921;49.006;9.292;2023-07-13T15:50:11;2.15;;;0.80;;